Time;durP1;ratioP1;P1;durP2;ratioP2;P2;SDS_P1;SDS_P2;PMS_P1;PMS_P2;Temp;Humidity;BMP_temperature;BMP_pressure;BME280_temperature;BME280_humidity;BME280_pressure;Samples;Min_cycle;Max_cycle;Signal;HPM_P1;HPM_P2
2021/10/25 00:00:40;;;;;;;;;;;;;;;;;;;;;
2021/10/25 00:03:07;;;;;;;13.82;8.18;;;;;;;;;;5094412;28;20032;-84
2021/10/25 00:05:38;;;;;;;15.82;9.63;;;;;;;;;;5092924;28;20044;-83
2021/10/25 00:08:04;;;;;;;12.55;7.90;;;;;;;;;;5092716;28;20028;-84
2021/10/25 00:10:30;;;;;;;8.93;5.63;;;;;;;;;;5094101;28;20031;-82
2021/10/25 00:13:04;;;;;;;5.88;4.18;;;;;;;;;;5092756;28;20030;-84
2021/10/25 00:15:30;;;;;;;8.05;4.97;;;;;;;;;;5094214;28;20024;-84
2021/10/25 00:17:56;;;;;;;7.88;5.10;;;;;;;;;;5093946;28;20035;-84
2021/10/25 00:20:22;;;;;;;6.70;4.38;;;;;;;;;;5093899;28;20047;-83
2021/10/25 00:22:48;;;;;;;6.68;4.30;;;;;;;;;;5093891;28;20020;-84
2021/10/25 00:25:14;;;;;;;6.10;4.28;;;;;;;;;;5093917;28;20109;-84
2021/10/25 00:27:40;;;;;;;8.05;4.72;;;;;;;;;;5093876;28;20016;-85
2021/10/25 00:30:08;;;;;;;6.75;4.55;;;;;;;;;;5093962;28;20027;-83
2021/10/25 00:32:34;;;;;;;7.95;4.10;;;;;;;;;;5093867;28;20013;-84
2021/10/25 00:35:00;;;;;;;7.78;4.55;;;;;;;;;;5092548;28;20023;-82
2021/10/25 00:37:27;;;;;;;9.38;5.72;;;;;;;;;;5092447;28;20024;-82
2021/10/25 00:39:55;;;;;;;11.55;6.28;;;;;;;;;;5092405;28;20043;-85
2021/10/25 00:42:26;;;;;;;12.93;8.02;;;;;;;;;;5093634;28;20057;-85
2021/10/25 00:45:04;;;;;;;;;;;;;;;;;;;;;
2021/10/25 00:47:31;;;;;;;15.63;9.40;;;;;;;;;;5093663;28;20016;-85
2021/10/25 00:49:57;;;;;;;13.75;9.05;;;;;;;;;;5093452;28;20425;-85
2021/10/25 00:52:23;;;;;;;13.70;8.00;;;;;;;;;;5093653;28;20020;-82
2021/10/25 00:54:49;;;;;;;11.32;7.00;;;;;;;;;;5093318;28;20559;-83
2021/10/25 00:57:15;;;;;;;8.85;6.50;;;;;;;;;;5093558;28;20095;-82
2021/10/25 00:59:41;;;;;;;9.52;5.80;;;;;;;;;;5093616;28;20020;-82
2021/10/25 01:02:08;;;;;;;9.18;6.18;;;;;;;;;;5093537;28;20020;-82
2021/10/25 01:04:36;;;;;;;9.88;6.22;;;;;;;;;;5093541;28;20073;-82
2021/10/25 01:07:05;;;;;;;7.45;5.45;;;;;;;;;;5092010;28;20106;-82
2021/10/25 01:09:31;;;;;;;8.20;6.32;;;;;;;;;;5093443;28;20487;-83
2021/10/25 01:11:58;;;;;;;10.07;5.85;;;;;;;;;;5093364;28;20118;-82
2021/10/25 01:14:24;;;;;;;9.95;5.28;;;;;;;;;;5093490;28;20027;-82
2021/10/25 01:16:50;;;;;;;8.50;5.63;;;;;;;;;;5092125;28;20035;-83
2021/10/25 01:19:17;;;;;;;8.40;4.90;;;;;;;;;;5092968;28;20094;-81
2021/10/25 01:21:45;;;;;;;7.10;5.05;;;;;;;;;;5093408;28;20091;-83
2021/10/25 01:24:13;;;;;;;7.90;5.00;;;;;;;;;;5092070;28;20027;-83
2021/10/25 01:26:50;;;;;;;;;;;;;;;;;;;;;
2021/10/25 01:29:19;;;;;;;5.35;4.78;;;;;;;;;;5093218;28;20012;-85
2021/10/25 01:31:45;;;;;;;6.20;4.65;;;;;;;;;;5093247;28;20027;-84
2021/10/25 01:34:13;;;;;;;7.20;4.55;;;;;;;;;;5093557;28;20475;-83
2021/10/25 01:36:40;;;;;;;6.70;4.03;;;;;;;;;;5091945;28;20028;-85
2021/10/25 01:39:06;;;;;;;9.93;4.32;;;;;;;;;;5092090;28;20396;-82
2021/10/25 01:41:35;;;;;;;8.35;4.47;;;;;;;;;;5093216;28;20081;-83
2021/10/25 01:44:01;;;;;;;6.65;4.38;;;;;;;;;;5093072;28;20024;-84
2021/10/25 01:46:27;;;;;;;8.88;4.80;;;;;;;;;;5093106;28;20027;-82
2021/10/25 01:48:54;;;;;;;9.27;5.85;;;;;;;;;;5093068;28;20027;-83
2021/10/25 01:51:23;;;;;;;12.02;7.25;;;;;;;;;;5096758;28;20020;-83
2021/10/25 01:53:49;;;;;;;15.30;7.68;;;;;;;;;;5096728;28;20119;-84
2021/10/25 01:56:16;;;;;;;10.60;6.80;;;;;;;;;;5096679;28;20074;-83
2021/10/25 01:58:43;;;;;;;12.07;7.55;;;;;;;;;;5095224;28;20410;-83
2021/10/25 02:01:17;;;;;;;10.25;6.03;;;;;;;;;;5096695;28;20028;-84
2021/10/25 02:03:43;;;;;;;9.20;6.07;;;;;;;;;;5096538;28;20463;-82
2021/10/25 02:06:10;;;;;;;8.52;6.13;;;;;;;;;;5096515;28;20083;-83
2021/10/25 02:08:36;;;;;;;10.05;6.55;;;;;;;;;;5096377;28;20016;-83
2021/10/25 02:11:04;;;;;;;7.03;5.95;;;;;;;;;;5096353;28;20055;-81
2021/10/25 02:13:50;;;;;;;5.72;4.75;;;;;;;;;;5096462;28;20028;-82
2021/10/25 02:16:26;;;;;;;6.20;5.20;;;;;;;;;;5094923;28;20030;-84
2021/10/25 02:18:52;;;;;;;6.32;5.30;;;;;;;;;;5094602;28;20119;-83
2021/10/25 02:21:18;;;;;;;9.70;5.60;;;;;;;;;;5096363;28;20383;-82
2021/10/25 02:23:45;;;;;;;9.52;6.32;;;;;;;;;;5096094;28;20360;-82
2021/10/25 02:26:14;;;;;;;8.48;6.70;;;;;;;;;;5095942;28;20382;-82
2021/10/25 02:28:46;;;;;;;8.48;6.55;;;;;;;;;;5096081;28;20070;-82
2021/10/25 02:31:17;;;;;;;7.97;6.20;;;;;;;;;;5095983;28;20017;-82
2021/10/25 02:33:43;;;;;;;8.18;5.53;;;;;;;;;;5094795;28;20364;-83
2021/10/25 02:36:10;;;;;;;10.15;5.63;;;;;;;;;;5095923;28;20469;-85
2021/10/25 02:38:37;;;;;;;6.85;4.78;;;;;;;;;;5094621;28;20493;-85
2021/10/25 02:41:04;;;;;;;7.53;4.88;;;;;;;;;;5096118;28;20085;-83
2021/10/25 02:43:33;;;;;;;7.05;4.40;;;;;;;;;;5094777;28;20451;-83
2021/10/25 02:46:03;;;;;;;8.05;5.15;;;;;;;;;;5096055;28;20027;-84
2021/10/25 02:48:30;;;;;;;8.25;5.20;;;;;;;;;;5095982;28;20391;-85
2021/10/25 02:50:56;;;;;;;7.35;4.47;;;;;;;;;;5095781;28;20023;-83
2021/10/25 02:53:23;;;;;;;14.88;7.93;;;;;;;;;;5094390;28;20016;-84
2021/10/25 02:55:50;;;;;;;11.73;6.60;;;;;;;;;;5095774;28;20024;-83
2021/10/25 02:58:16;;;;;;;8.40;5.82;;;;;;;;;;5095521;28;20423;-85
2021/10/25 03:00:43;;;;;;;8.90;5.70;;;;;;;;;;5094254;28;20024;-85
2021/10/25 03:03:09;;;;;;;9.48;5.07;;;;;;;;;;5094199;28;20570;-83
2021/10/25 03:05:43;;;;;;;6.82;4.80;;;;;;;;;;5095287;28;20558;-85
2021/10/25 03:08:10;;;;;;;7.60;5.22;;;;;;;;;;5094273;28;20028;-84
2021/10/25 03:10:38;;;;;;;7.32;5.60;;;;;;;;;;5095207;28;20020;-83
2021/10/25 03:13:06;;;;;;;7.75;4.90;;;;;;;;;;5095246;28;20025;-84
2021/10/25 03:15:32;;;;;;;11.00;5.38;;;;;;;;;;5095166;28;20028;-85
2021/10/25 03:17:58;;;;;;;7.65;4.70;;;;;;;;;;5093916;28;20478;-85
2021/10/25 03:20:27;;;;;;;8.70;4.72;;;;;;;;;;5093755;28;20079;-85
2021/10/25 03:22:53;;;;;;;8.80;5.30;;;;;;;;;;5095038;28;20012;-84
2021/10/25 03:25:19;;;;;;;10.40;6.80;;;;;;;;;;5093675;28;20467;-85
2021/10/25 03:27:47;;;;;;;10.20;8.60;;;;;;;;;;5094865;28;20035;-85
2021/10/25 03:30:14;;;;;;;9.43;7.90;;;;;;;;;;5095240;28;20017;-84
2021/10/25 03:32:41;;;;;;;10.73;8.60;;;;;;;;;;5094809;28;20383;-84
2021/10/25 03:35:07;;;;;;;12.75;11.18;;;;;;;;;;5094885;28;20016;-85
2021/10/25 03:37:35;;;;;;;21.90;19.80;;;;;;;;;;5094750;28;20020;-83
2021/10/25 03:40:02;;;;;;;18.15;16.15;;;;;;;;;;5094695;28;20024;-85
2021/10/25 03:42:37;;;;;;;17.13;13.20;;;;;;;;;;5093487;28;20169;-86
2021/10/25 03:50:18;;;;;;;13.65;8.82;;;;;;;;;;5094686;28;20035;-84
2021/10/25 04:28:00;;;;;;;14.25;10.00;;;;;;;;;;5094178;28;20441;-83
2021/10/25 04:30:31;;;;;;;13.60;9.50;;;;;;;;;;5092905;28;20052;-84
2021/10/25 04:33:00;;;;;;;13.32;8.88;;;;;;;;;;5092600;28;20028;-82
2021/10/25 04:35:26;;;;;;;19.95;12.90;;;;;;;;;;5094023;28;20024;-82
2021/10/25 04:37:52;;;;;;;15.82;10.82;;;;;;;;;;5092652;28;20028;-81
2021/10/25 04:40:19;;;;;;;18.33;10.85;;;;;;;;;;5093828;28;20101;-82
2021/10/25 04:42:45;;;;;;;15.75;9.98;;;;;;;;;;5093811;28;20036;-81
2021/10/25 04:45:11;;;;;;;14.82;10.30;;;;;;;;;;5093722;28;20035;-82
2021/10/25 04:47:37;;;;;;;17.10;10.50;;;;;;;;;;5093637;28;20016;-80
2021/10/25 04:50:04;;;;;;;13.80;8.73;;;;;;;;;;5093585;28;20024;-79
2021/10/25 04:52:30;;;;;;;13.82;8.18;;;;;;;;;;5093731;28;20061;-82
2021/10/25 04:54:57;;;;;;;11.73;8.68;;;;;;;;;;5093553;28;20371;-82
2021/10/25 04:57:23;;;;;;;14.18;8.93;;;;;;;;;;5093588;28;20083;-81
2021/10/25 04:59:49;;;;;;;13.13;9.07;;;;;;;;;;5093592;28;20023;-83
2021/10/25 05:02:15;;;;;;;15.07;9.25;;;;;;;;;;5092273;28;20023;-81
2021/10/25 05:04:41;;;;;;;12.98;8.40;;;;;;;;;;5093532;28;20028;-81
2021/10/25 05:07:08;;;;;;;13.55;9.35;;;;;;;;;;5093454;28;20035;-83
2021/10/25 05:09:34;;;;;;;12.88;9.52;;;;;;;;;;5092257;28;20501;-83
2021/10/25 05:12:02;;;;;;;13.25;7.20;;;;;;;;;;5091851;28;20056;-79
2021/10/25 05:14:28;;;;;;;11.77;7.72;;;;;;;;;;5093359;28;20527;-78
2021/10/25 05:16:55;;;;;;;15.20;9.95;;;;;;;;;;5093265;28;20490;-83
2021/10/25 05:19:23;;;;;;;12.68;8.48;;;;;;;;;;5090746;28;20824;-86
2021/10/25 05:21:49;;;;;;;13.63;9.25;;;;;;;;;;5082627;28;20043;-81
2021/10/25 05:24:16;;;;;;;17.15;10.18;;;;;;;;;;5090797;28;20020;-82
2021/10/25 05:26:44;;;;;;;16.83;11.15;;;;;;;;;;5095448;28;20051;-81
2021/10/25 05:29:10;;;;;;;19.13;11.25;;;;;;;;;;5094566;28;20024;-81
2021/10/25 05:31:57;;;;;;;;;;;;;;;;;;;;;
2021/10/25 05:34:43;;;;;;;21.00;12.95;;;;;;;;;;5076633;28;20021;-82
2021/10/25 05:40:19;;;;;;;21.02;11.95;;;;;;;;;;5087948;28;20554;-80
2021/10/25 05:46:30;;;;;;;;;;;;;;;;;;;;;
2021/10/25 05:55:22;;;;;;;;;;;;;;;;;;;;;
2021/10/25 05:58:21;;;;;;;33.95;22.95;;;;;;;;;;5054381;28;20049;-84
2021/10/25 06:04:20;;;;;;;;;;;;;;;;;;;;;
2021/10/25 06:06:49;;;;;;;40.78;26.88;;;;;;;;;;5091521;28;20117;-79
2021/10/25 06:09:17;;;;;;;48.17;33.92;;;;;;;;;;5095349;28;20452;-83
2021/10/25 06:11:44;;;;;;;99.55;61.90;;;;;;;;;;5095165;28;20028;-82
2021/10/25 06:14:25;;;;;;;;;;;;;;;;;;;;;
2021/10/25 06:19:43;;;;;;;116.43;64.10;;;;;;;;;;5019401;28;20124;-81
2021/10/25 06:22:09;;;;;;;106.85;61.22;;;;;;;;;;5011867;28;20488;-84
2021/10/25 06:24:35;;;;;;;95.97;59.42;;;;;;;;;;5012234;28;20042;-82
2021/10/25 06:27:01;;;;;;;90.63;57.38;;;;;;;;;;5011947;28;20041;-82
2021/10/25 06:29:27;;;;;;;68.05;45.40;;;;;;;;;;5002258;28;20042;-82
2021/10/25 06:31:53;;;;;;;66.25;44.35;;;;;;;;;;5032432;28;20057;-85
2021/10/25 06:34:33;;;;;;;62.25;41.72;;;;;;;;;;5048936;28;20022;-85
2021/10/25 06:37:18;;;;;;;;;;;;;;;;;;;;;
2021/10/25 06:43:29;;;;;;;24.10;15.65;;;;;;;;;;5054122;28;20530;-83
2021/10/25 06:46:25;;;;;;;;;;;;;;;;;;;;;
2021/10/25 06:52:42;;;;;;;22.40;13.40;;;;;;;;;;4981726;28;20437;-84
2021/10/25 06:58:23;;;;;;;10.98;8.07;;;;;;;;;;4971360;28;20031;-82
2021/10/25 07:00:49;;;;;;;10.10;7.70;;;;;;;;;;4967285;28;20454;-69
2021/10/25 07:03:21;;;;;;;11.32;7.00;;;;;;;;;;5011622;28;20079;-85
2021/10/25 07:06:07;;;;;;;9.90;6.65;;;;;;;;;;5040305;28;20224;-85
2021/10/25 07:08:38;;;;;;;10.82;7.03;;;;;;;;;;5041107;28;20036;-86
2021/10/25 07:14:36;;;;;;;;;;;;;;;;;;;;;
2021/10/25 07:22:55;;;;;;;10.95;7.25;;;;;;;;;;5090073;28;20111;-81
2021/10/25 07:59:27;;;;;;;12.73;8.85;;;;;;;;;;5074242;28;20421;-82
2021/10/25 08:06:43;;;;;;;14.05;8.48;;;;;;;;;;5073071;28;20079;-85
2021/10/25 08:09:24;;;;;;;8.90;7.15;;;;;;;;;;5080639;28;20034;-82
2021/10/25 08:12:10;;;;;;;11.40;8.38;;;;;;;;;;5092576;28;20024;-82
2021/10/25 08:14:42;;;;;;;8.05;6.18;;;;;;;;;;5092309;28;20756;-80
2021/10/25 08:17:11;;;;;;;12.40;8.23;;;;;;;;;;5092438;28;20382;-78
2021/10/25 08:19:39;;;;;;;21.15;13.00;;;;;;;;;;5090189;28;20052;-79
2021/10/25 08:22:19;;;;;;;10.82;8.05;;;;;;;;;;5088020;28;20040;-83
2021/10/25 08:24:49;;;;;;;13.50;7.07;;;;;;;;;;5086060;28;20020;-81
2021/10/25 08:27:17;;;;;;;9.07;6.63;;;;;;;;;;5083644;28;20047;-83
2021/10/25 08:35:34;;;;;;;13.25;7.80;;;;;;;;;;5072144;28;20024;-83
2021/10/25 08:44:10;;;;;;;11.20;7.68;;;;;;;;;;4977192;28;20031;-84
2021/10/25 08:46:53;;;;;;;;;;;;;;;;;;;;;
2021/10/25 08:52:26;;;;;;;26.88;16.80;;;;;;;;;;4952616;28;20034;-76
2021/10/25 08:54:53;;;;;;;19.83;11.18;;;;;;;;;;5018201;28;20036;-77
2021/10/25 08:57:20;;;;;;;11.82;7.65;;;;;;;;;;5081345;28;20024;-73
2021/10/25 08:59:57;;;;;;;11.40;7.22;;;;;;;;;;5085452;28;20039;-72
2021/10/25 09:02:24;;;;;;;10.38;7.15;;;;;;;;;;5095590;28;20025;-83
2021/10/25 09:05:10;;;;;;;10.00;6.93;;;;;;;;;;5095769;28;20081;-66
2021/10/25 09:07:53;;;;;;;10.60;6.90;;;;;;;;;;5094633;28;20375;-67
2021/10/25 09:10:39;;;;;;;9.85;8.20;;;;;;;;;;5086070;28;20024;-67
2021/10/25 09:13:07;;;;;;;10.77;7.38;;;;;;;;;;5089361;28;20502;-67
2021/10/25 09:15:38;;;;;;;11.55;6.40;;;;;;;;;;5086143;28;20067;-68
2021/10/25 09:18:23;;;;;;;10.25;7.45;;;;;;;;;;5084825;28;20032;-75
2021/10/25 09:20:51;;;;;;;11.95;9.48;;;;;;;;;;5083428;28;20056;-74
2021/10/25 09:23:23;;;;;;;12.02;8.55;;;;;;;;;;5083865;28;20523;-83
2021/10/25 09:26:00;;;;;;;10.38;8.15;;;;;;;;;;5088269;28;20036;-82
2021/10/25 09:28:29;;;;;;;19.70;8.60;;;;;;;;;;5086330;28;20044;-81
2021/10/25 09:30:58;;;;;;;12.23;7.90;;;;;;;;;;5077281;28;20028;-82
2021/10/25 09:33:34;;;;;;;;;;;;;;;;;;;;;
2021/10/25 09:36:23;;;;;;;11.40;8.00;;;;;;;;;;5075057;28;20036;-84
2021/10/25 09:39:15;;;;;;;;;;;;;;;;;;;;;
2021/10/25 09:50:39;;;;;;;20.10;9.80;;;;;;;;;;5076837;28;20093;-84
2021/10/25 09:53:09;;;;;;;8.70;7.78;;;;;;;;;;5074224;28;20449;-81
2021/10/25 09:55:42;;;;;;;19.17;8.02;;;;;;;;;;5080556;28;20037;-83
2021/10/25 09:58:17;;;;;;;10.20;6.55;;;;;;;;;;5089936;28;20475;-86
2021/10/25 10:00:44;;;;;;;9.43;7.32;;;;;;;;;;5094954;28;20391;-82
2021/10/25 10:03:12;;;;;;;14.75;7.97;;;;;;;;;;5087655;28;20095;-82
2021/10/25 10:05:40;;;;;;;8.57;6.75;;;;;;;;;;5088767;28;20036;-81
2021/10/25 10:08:07;;;;;;;9.57;6.95;;;;;;;;;;5092437;28;20012;-83
2021/10/25 10:20:04;;;;;;;;;;;;;;;;;;;;;
2021/10/25 10:28:42;;;;;;;20.67;13.25;;;;;;;;;;5070796;28;20028;-81
2021/10/25 10:34:22;;;;;;;38.10;29.38;;;;;;;;;;5093548;28;20502;-79
2021/10/25 10:36:54;;;;;;;34.03;27.48;;;;;;;;;;5094226;28;20024;-73
2021/10/25 10:39:21;;;;;;;14.27;11.50;;;;;;;;;;5092821;28;20043;-82
2021/10/25 10:41:53;;;;;;;24.52;12.15;;;;;;;;;;5094507;28;20016;-81
2021/10/25 10:44:52;;;;;;;;;;;;;;;;;;;;;
2021/10/25 10:56:51;;;;;;;21.35;10.43;;;;;;;;;;5043265;28;20040;-84
2021/10/25 11:05:41;;;;;;;12.82;7.75;;;;;;;;;;4999901;28;20033;-82
2021/10/25 11:08:32;;;;;;;10.60;6.72;;;;;;;;;;5050909;28;20037;-82
2021/10/25 11:11:38;;;;;;;;;;;;;;;;;;;;;
2021/10/25 11:17:23;;;;;;;8.47;5.90;;;;;;;;;;5044776;28;19909;-81
2021/10/25 11:20:00;;;;;;;;;;;;;;;;;;;;;
2021/10/25 11:22:39;;;;;;;19.08;10.02;;;;;;;;;;5100278;28;20034;-81
2021/10/25 11:25:10;;;;;;;28.98;14.13;;;;;;;;;;5091984;28;20034;-81
2021/10/25 11:27:40;;;;;;;66.47;35.50;;;;;;;;;;5091955;28;20086;-79
2021/10/25 11:30:11;;;;;;;25.40;15.02;;;;;;;;;;5092647;28;20497;-79
2021/10/25 11:32:41;;;;;;;20.25;9.80;;;;;;;;;;5071743;28;20512;-79
2021/10/25 11:35:10;;;;;;;8.70;6.60;;;;;;;;;;5073779;28;20036;-82
2021/10/25 11:37:38;;;;;;;18.83;11.98;;;;;;;;;;5073447;28;20066;-81
2021/10/25 11:40:07;;;;;;;18.83;15.32;;;;;;;;;;5072695;28;20020;-78
2021/10/25 11:42:45;;;;;;;9.18;6.13;;;;;;;;;;5072585;28;20422;-80
2021/10/25 11:45:13;;;;;;;8.02;5.80;;;;;;;;;;5085755;28;20107;-80
2021/10/25 11:47:50;;;;;;;14.30;7.35;;;;;;;;;;5093475;28;20093;-81
2021/10/25 11:50:23;;;;;;;8.30;4.80;;;;;;;;;;5076572;28;20032;-80
2021/10/25 11:52:58;;;;;;;7.65;4.85;;;;;;;;;;5072364;28;20107;-84
2021/10/25 11:55:26;;;;;;;7.57;4.35;;;;;;;;;;5081704;28;20364;-83
2021/10/25 11:58:02;;;;;;;19.45;8.38;;;;;;;;;;5086279;28;20043;-79
2021/10/25 12:00:30;;;;;;;54.95;44.30;;;;;;;;;;5092248;28;20123;-82
2021/10/25 12:03:27;;;;;;;;;;;;;;;;;;;;;
2021/10/25 12:06:00;;;;;;;20.85;11.18;;;;;;;;;;5084890;28;20066;-79
2021/10/25 12:14:16;;;;;;;9.15;4.72;;;;;;;;;;5086591;28;20051;-65
2021/10/25 12:16:48;;;;;;;8.60;5.13;;;;;;;;;;5085010;28;20025;-64
2021/10/25 12:19:15;;;;;;;8.80;6.30;;;;;;;;;;5076010;28;20040;-84
2021/10/25 12:21:41;;;;;;;35.40;20.60;;;;;;;;;;5075462;28;20021;-69
2021/10/25 12:24:11;;;;;;;20.55;10.88;;;;;;;;;;5081737;28;20025;-83
2021/10/25 12:26:42;;;;;;;8.77;6.03;;;;;;;;;;5080485;28;20106;-82
2021/10/25 12:29:20;;;;;;;15.98;7.63;;;;;;;;;;5083431;28;20073;-82
2021/10/25 12:31:56;;;;;;;10.20;5.00;;;;;;;;;;5081459;28;20058;-80
2021/10/25 12:34:43;;;;;;;7.45;4.68;;;;;;;;;;5073989;28;20036;-82
2021/10/25 12:37:20;;;;;;;7.75;4.72;;;;;;;;;;5079168;28;20034;-82
2021/10/25 12:39:48;;;;;;;9.90;5.82;;;;;;;;;;5077242;28;20027;-82
2021/10/25 12:42:22;;;;;;;7.05;4.82;;;;;;;;;;5072310;28;20472;-80
2021/10/25 12:44:52;;;;;;;15.55;9.63;;;;;;;;;;5091157;28;20020;-81
2021/10/25 12:56:12;;;;;;;8.55;5.50;;;;;;;;;;4970117;28;20042;-79
2021/10/25 12:58:41;;;;;;;12.87;9.63;;;;;;;;;;5037217;28;20516;-80
2021/10/25 13:01:11;;;;;;;27.08;6.68;;;;;;;;;;5032272;28;20028;-82
2021/10/25 13:03:49;;;;;;;17.55;4.65;;;;;;;;;;5066525;28;20036;-82
2021/10/25 13:06:17;;;;;;;9.13;4.53;;;;;;;;;;5091108;28;20032;-81
2021/10/25 13:08:49;;;;;;;7.30;4.97;;;;;;;;;;5090481;28;20109;-81
2021/10/25 13:11:59;;;;;;;6.68;4.53;;;;;;;;;;5089987;28;20395;-80
2021/10/25 13:14:44;;;;;;;8.30;5.45;;;;;;;;;;5090831;28;20533;-80
2021/10/25 13:23:46;;;;;;;;;;;;;;;;;;;;;
2021/10/25 13:26:12;;;;;;;17.45;8.27;;;;;;;;;;5049787;28;20059;-81
2021/10/25 13:28:40;;;;;;;25.48;9.07;;;;;;;;;;5069363;28;20044;-82
2021/10/25 13:31:09;;;;;;;38.88;12.70;;;;;;;;;;5071738;28;20024;-83
2021/10/25 13:33:36;;;;;;;31.00;9.77;;;;;;;;;;5072376;28;20082;-85
2021/10/25 13:36:05;;;;;;;19.88;8.45;;;;;;;;;;5089011;28;20032;-85
2021/10/25 13:42:16;;;;;;;;;;;;;;;;;;;;;
2021/10/25 13:51:04;;;;;;;45.97;17.88;;;;;;;;;;4976420;28;20035;-85
2021/10/25 13:53:33;;;;;;;53.42;14.20;;;;;;;;;;4992435;28;20113;-85
2021/10/25 13:58:50;;;;;;;79.20;31.80;;;;;;;;;;5077088;28;20041;-85
2021/10/25 14:01:16;;;;;;;16.50;7.80;;;;;;;;;;5079014;28;20020;-88
2021/10/25 14:03:48;;;;;;;27.48;11.07;;;;;;;;;;5078523;28;20023;-86
2021/10/25 14:09:50;;;;;;;;;;;;;;;;;;;;;
2021/10/25 14:12:38;;;;;;;20.67;6.85;;;;;;;;;;4995896;28;20223;-84
2021/10/25 14:15:39;;;;;;;;;;;;;;;;;;;;;
2021/10/25 14:18:25;;;;;;;73.68;23.00;;;;;;;;;;5071434;28;20037;-84
2021/10/25 14:21:28;;;;;;;;;;;;;;;;;;;;;
2021/10/25 14:24:34;;;;;;;;;;;;;;;;;;;;;
2021/10/25 14:29:40;;;;;;;76.57;25.88;;;;;;;;;;5042337;28;20052;-81
2021/10/25 14:32:15;;;;;;;51.42;18.92;;;;;;;;;;5037718;28;20037;-82
2021/10/25 14:34:48;;;;;;;133.73;76.65;;;;;;;;;;5056062;28;20067;-84
2021/10/25 14:37:16;;;;;;;38.00;22.17;;;;;;;;;;5074945;28;20062;-84
2021/10/25 14:39:57;;;;;;;91.40;42.08;;;;;;;;;;5073359;28;20408;-84
2021/10/25 14:45:21;;;;;;;;;;;;;;;;;;5076432;28;20383;-83
2021/10/25 14:55:56;;;;;;;29.50;10.85;;;;;;;;;;5075631;28;20090;-82
2021/10/25 14:58:23;;;;;;;55.53;28.85;;;;;;;;;;5074405;28;20103;-83
2021/10/25 15:00:49;;;;;;;31.73;20.25;;;;;;;;;;5092957;28;20494;-81
2021/10/25 15:03:15;;;;;;;50.17;23.90;;;;;;;;;;5094650;28;20032;-84
2021/10/25 15:08:44;;;;;;;59.63;20.25;;;;;;;;;;5084819;28;20051;-83
2021/10/25 15:14:07;;;;;;;58.00;29.90;;;;;;;;;;5094260;28;20107;-84
2021/10/25 15:16:43;;;;;;;55.60;21.50;;;;;;;;;;5075017;28;20430;-82
2021/10/25 15:22:26;;;;;;;56.88;23.10;;;;;;;;;;5061801;28;20118;-79
2021/10/25 15:28:21;;;;;;;64.05;26.15;;;;;;;;;;5032549;28;20022;-83
2021/10/25 15:36:40;;;;;;;;;;;;;;;;;;;;;
2021/10/25 15:39:15;;;;;;;133.15;44.25;;;;;;;;;;5041249;28;20033;-83
2021/10/25 15:41:44;;;;;;;95.97;33.15;;;;;;;;;;5051370;28;20021;-83
2021/10/25 15:44:11;;;;;;;81.43;28.08;;;;;;;;;;5015311;28;20049;-83
2021/10/25 15:46:40;;;;;;;96.72;32.40;;;;;;;;;;5067986;28;20040;-82
2021/10/25 15:49:06;;;;;;;54.65;21.10;;;;;;;;;;5073862;28;20375;-82
2021/10/25 15:51:33;;;;;;;126.68;41.78;;;;;;;;;;5073685;28;20029;-82
2021/10/25 15:53:59;;;;;;;100.10;34.42;;;;;;;;;;5073577;28;20028;-82
2021/10/25 15:56:26;;;;;;;155.68;50.80;;;;;;;;;;5076043;28;20040;-82
2021/10/25 15:58:52;;;;;;;55.97;20.23;;;;;;;;;;5083749;28;20032;-83
2021/10/25 16:01:18;;;;;;;72.15;28.17;;;;;;;;;;5085540;28;20074;-82
2021/10/25 16:03:44;;;;;;;92.25;29.88;;;;;;;;;;5102967;28;20076;-82
2021/10/25 16:06:11;;;;;;;59.55;21.13;;;;;;;;;;5089575;28;20060;-81
2021/10/25 16:08:37;;;;;;;48.47;17.58;;;;;;;;;;5074340;28;20481;-81
2021/10/25 16:11:04;;;;;;;60.05;20.75;;;;;;;;;;5074450;28;20032;-81
2021/10/25 16:13:30;;;;;;;68.45;23.92;;;;;;;;;;5073040;28;20024;-80
2021/10/25 16:15:56;;;;;;;42.78;14.65;;;;;;;;;;5072939;28;20024;-72
2021/10/25 16:18:22;;;;;;;62.75;21.83;;;;;;;;;;5073287;28;20028;-81
2021/10/25 16:20:50;;;;;;;67.28;22.38;;;;;;;;;;5084968;28;20055;-80
2021/10/25 16:23:16;;;;;;;81.55;25.92;;;;;;;;;;5104473;28;20474;-79
2021/10/25 16:25:52;;;;;;;;;;;;;;;;;;;;;
2021/10/25 16:28:19;;;;;;;117.82;35.40;;;;;;;;;;5093174;28;20016;-80
2021/10/25 16:30:47;;;;;;;59.42;20.92;;;;;;;;;;5090752;28;20028;-83
2021/10/25 16:33:16;;;;;;;76.32;24.08;;;;;;;;;;5086514;28;20029;-82
2021/10/25 16:35:45;;;;;;;100.22;42.45;;;;;;;;;;5087987;28;20468;-81
2021/10/25 16:38:11;;;;;;;69.05;29.20;;;;;;;;;;5092931;28;20032;-82
2021/10/25 16:40:38;;;;;;;72.50;29.05;;;;;;;;;;5093085;28;20024;-80
2021/10/25 16:43:04;;;;;;;35.72;17.23;;;;;;;;;;5092871;28;20063;-83
2021/10/25 16:45:31;;;;;;;46.45;19.00;;;;;;;;;;5078576;28;20021;-81
2021/10/25 16:48:08;;;;;;;75.05;27.70;;;;;;;;;;5081886;28;20085;-81
2021/10/25 16:50:37;;;;;;;47.92;18.05;;;;;;;;;;5092930;28;20483;-82
2021/10/25 17:04:54;;;;;;;108.97;38.15;;;;;;;;;;5093797;28;20115;-82
2021/10/25 17:09:51;;;;;;;159.25;79.95;;;;;;;;;;5089083;28;20521;-80
2021/10/25 17:12:19;;;;;;;102.05;49.97;;;;;;;;;;5080336;28;20086;-83
2021/10/25 17:14:46;;;;;;;52.97;24.33;;;;;;;;;;5073284;28;20051;-82
2021/10/25 17:17:12;;;;;;;50.38;21.90;;;;;;;;;;5071058;28;20020;-80
2021/10/25 17:19:38;;;;;;;66.78;37.35;;;;;;;;;;5072991;28;20073;-81
2021/10/25 17:22:07;;;;;;;63.35;27.15;;;;;;;;;;5076536;28;20031;-79
2021/10/25 17:24:34;;;;;;;56.20;23.45;;;;;;;;;;5093723;28;20475;-80
2021/10/25 17:27:00;;;;;;;59.45;25.30;;;;;;;;;;5097188;28;20028;-79
2021/10/25 17:29:27;;;;;;;62.50;26.30;;;;;;;;;;5097365;28;20024;-80
2021/10/25 17:31:55;;;;;;;88.03;33.88;;;;;;;;;;5097518;28;20513;-81
2021/10/25 17:34:21;;;;;;;97.82;38.25;;;;;;;;;;5107798;28;20048;-81
2021/10/25 17:36:47;;;;;;;47.10;22.27;;;;;;;;;;5097224;28;20114;-79
2021/10/25 17:39:13;;;;;;;76.03;29.75;;;;;;;;;;5097402;28;20028;-82
2021/10/25 17:41:41;;;;;;;66.22;24.48;;;;;;;;;;5091461;28;20432;-78
2021/10/25 17:44:08;;;;;;;43.22;17.33;;;;;;;;;;5080279;28;20134;-77
2021/10/25 17:46:35;;;;;;;59.08;23.95;;;;;;;;;;5086676;28;20024;-80
2021/10/25 17:49:01;;;;;;;114.57;73.47;;;;;;;;;;5096951;28;20032;-83
2021/10/25 17:51:29;;;;;;;147.90;108.90;;;;;;;;;;5095821;28;20024;-80
2021/10/25 17:53:57;;;;;;;145.55;104.30;;;;;;;;;;5096647;28;20122;-80
2021/10/25 17:56:26;;;;;;;175.73;127.55;;;;;;;;;;5101010;28;20027;-83
2021/10/25 17:58:52;;;;;;;170.07;120.90;;;;;;;;;;5096882;28;20028;-79
2021/10/25 18:01:19;;;;;;;161.43;116.60;;;;;;;;;;5084905;28;20126;-79
2021/10/25 18:03:45;;;;;;;144.35;107.95;;;;;;;;;;5095237;28;20489;-81
2021/10/25 18:06:11;;;;;;;152.85;109.75;;;;;;;;;;5095362;28;20058;-83
2021/10/25 18:08:41;;;;;;;120.78;88.60;;;;;;;;;;5096657;28;20486;-82
2021/10/25 18:11:08;;;;;;;130.45;89.28;;;;;;;;;;5096620;28;20060;-82
2021/10/25 18:13:42;;;;;;;153.27;105.05;;;;;;;;;;5096866;28;20016;-84
2021/10/25 18:16:25;;;;;;;135.43;93.45;;;;;;;;;;5096244;28;20035;-83
2021/10/25 18:18:51;;;;;;;115.57;79.45;;;;;;;;;;5096252;28;20020;-80
2021/10/25 18:21:18;;;;;;;104.50;66.10;;;;;;;;;;5094550;28;20047;-80
2021/10/25 18:23:44;;;;;;;59.25;42.20;;;;;;;;;;5095106;28;20089;-81
2021/10/25 18:26:11;;;;;;;111.43;57.03;;;;;;;;;;5096254;28;20391;-79
2021/10/25 18:28:39;;;;;;;79.22;53.75;;;;;;;;;;5096461;28;20032;-80
2021/10/25 18:31:07;;;;;;;87.82;60.53;;;;;;;;;;5094654;28;20024;-81
2021/10/25 18:33:38;;;;;;;99.53;66.93;;;;;;;;;;5096180;28;20032;-82
2021/10/25 18:36:04;;;;;;;87.72;55.80;;;;;;;;;;5096249;28;20038;-79
2021/10/25 18:38:30;;;;;;;78.65;47.92;;;;;;;;;;5094935;28;20066;-82
2021/10/25 18:40:58;;;;;;;77.60;47.40;;;;;;;;;;5096200;28;20493;-80
2021/10/25 18:43:25;;;;;;;70.78;44.80;;;;;;;;;;5096078;28;20016;-78
2021/10/25 18:45:51;;;;;;;75.32;51.35;;;;;;;;;;5095926;28;20450;-82
2021/10/25 18:48:19;;;;;;;80.15;52.58;;;;;;;;;;5095960;28;20099;-79
2021/10/25 18:50:45;;;;;;;92.35;67.22;;;;;;;;;;5096088;28;20073;-81
2021/10/25 18:53:12;;;;;;;90.53;63.60;;;;;;;;;;5095990;28;20063;-83
2021/10/25 18:55:39;;;;;;;82.68;60.22;;;;;;;;;;5095767;28;20470;-81
2021/10/25 18:58:06;;;;;;;76.53;54.63;;;;;;;;;;5095805;28;20020;-78
2021/10/25 19:00:34;;;;;;;166.18;95.65;;;;;;;;;;5095658;28;20055;-79
2021/10/25 19:03:00;;;;;;;103.13;64.90;;;;;;;;;;5095515;28;20028;-82
2021/10/25 19:05:26;;;;;;;44.03;31.52;;;;;;;;;;5095319;28;20497;-79
2021/10/25 19:07:52;;;;;;;58.55;37.97;;;;;;;;;;5095225;28;20024;-80
2021/10/25 19:10:19;;;;;;;112.40;73.18;;;;;;;;;;5095636;28;20077;-81
2021/10/25 19:12:45;;;;;;;126.20;81.65;;;;;;;;;;5095403;28;20024;-80
2021/10/25 19:15:12;;;;;;;141.90;86.10;;;;;;;;;;5094172;28;20028;-79
2021/10/25 19:17:39;;;;;;;123.22;81.38;;;;;;;;;;5095178;28;20016;-79
2021/10/25 19:20:13;;;;;;;75.72;56.72;;;;;;;;;;5095211;28;20056;-82
2021/10/25 19:22:40;;;;;;;71.03;51.55;;;;;;;;;;5095295;28;20031;-82
2021/10/25 19:25:07;;;;;;;46.45;33.47;;;;;;;;;;5094073;28;20019;-80
2021/10/25 19:27:33;;;;;;;36.70;24.00;;;;;;;;;;5094801;28;20081;-80
2021/10/25 19:29:59;;;;;;;32.70;24.67;;;;;;;;;;5095148;28;20020;-81
2021/10/25 19:32:26;;;;;;;41.85;31.65;;;;;;;;;;5095057;28;20383;-77
2021/10/25 19:34:54;;;;;;;48.60;33.15;;;;;;;;;;5094939;28;20371;-80